Cotes De Bretagne — FW3973 — position and weather

sailwx.info

Track history (hours):
 
Tides and Currents Weather Stations Pressure Air Temp Water Temp Dewpoint Dewpoint Depression Visibility Wind Speed Wind Dir Waves Ship Positions

Cotes De Bretagne

Last reported at 2014-Nov-22 16:33 UTC. Time now 2014-Nov-22 16:50 UTC.
Position N 47°56' W 004°08'.

Length 75 m; draft 4.2 m.

Type: Dredging. MMSI: 227003850.

Date/timePositionNaut miles runAvg speedWind from/ knotsBaromVisibWave heightAir tempDewpointWater temp
2014-Nov-22 16:33N 47°56' W 004°08'3 0.9
2014-Nov-22 13:33N 47°53' W 004°07'4 0.2
2014-Nov-21 15:33N 47°57' W 004°07'9 2.2
2014-Nov-21 11:33N 47°49' W 004°03'9 9.4
2014-Nov-21 10:33N 47°44' W 003°51'21 1.4
2014-Nov-20 19:33N 47°31' W 003°25'39 6.4
2014-Nov-20 13:33N 47°58' W 004°06'6 5.9
2014-Nov-20 12:33N 47°52' W 004°07'3 0.4
2014-Nov-20 05:33N 47°50' W 004°05'31 0.7
2014-Nov-18 10:18N 47°40' W 003°22'4 5.5
2014-Nov-18 09:34N 47°44' W 003°21'0 0.0
2014-Nov-18 08:34N 47°44' W 003°21'0 0.0
2014-Nov-18 07:34N 47°44' W 003°21'0 0.0
2014-Nov-18 06:34N 47°44' W 003°21'0 0.0
2014-Nov-18 05:34N 47°44' W 003°21'0 0.0
2014-Nov-18 04:34N 47°44' W 003°21'0 0.0
2014-Nov-18 03:34N 47°44' W 003°21'0 0.0
2014-Nov-18 02:34N 47°44' W 003°21'0 0.0
2014-Nov-18 01:34N 47°44' W 003°21'0 0.0
2014-Nov-18 00:34N 47°44' W 003°21'0 0.0
2014-Nov-17 23:34N 47°44' W 003°21'0 0.0
2014-Nov-17 22:33N 47°44' W 003°21'0 0.0
2014-Nov-17 21:34N 47°44' W 003°21'0 0.0
2014-Nov-17 20:34N 47°44' W 003°21'0 0.0
2014-Nov-17 19:34N 47°44' W 003°21'0 0.0
2014-Nov-17 18:34N 47°44' W 003°21'0 0.0
2014-Nov-17 17:34N 47°44' W 003°21'0 0.0
2014-Nov-17 16:34N 47°44' W 003°21'0 0.0
2014-Nov-17 15:34N 47°44' W 003°21'0 0.0
2014-Nov-17 14:33N 47°44' W 003°21'0 0.0
2014-Nov-17 13:33N 47°44' W 003°21'0 0.0
2014-Nov-17 12:33N 47°44' W 003°21'0 0.0
2014-Nov-17 11:33N 47°44' W 003°21'0 0.0
2014-Nov-17 10:33N 47°44' W 003°21'0 0.0
2014-Nov-17 09:33N 47°44' W 003°21'0 0.0
2014-Nov-17 08:33N 47°44' W 003°21'0 0.0
2014-Nov-17 07:33N 47°44' W 003°21'0 0.0
2014-Nov-17 06:33N 47°44' W 003°21'0 0.0
2014-Nov-17 05:33N 47°44' W 003°21'0 0.0
2014-Nov-17 04:33N 47°44' W 003°21'0 0.0
2014-Nov-17 03:33N 47°44' W 003°21'0 0.0
2014-Nov-17 02:33N 47°44' W 003°21'0 0.0
2014-Nov-17 01:33N 47°44' W 003°21'0 0.0
2014-Nov-17 00:33N 47°44' W 003°21'0 0.0
2014-Nov-16 23:33N 47°44' W 003°21'0 0.0
2014-Nov-16 22:33N 47°44' W 003°21'0 0.0
2014-Nov-16 21:33N 47°44' W 003°21'0 0.0
2014-Nov-16 20:33N 47°44' W 003°21'0 0.0
2014-Nov-16 19:33N 47°44' W 003°21'0 0.0
2014-Nov-16 18:33N 47°44' W 003°21'0 0.0
2014-Nov-16 17:33N 47°44' W 003°21'0 0.0
2014-Nov-16 16:33N 47°44' W 003°21'0 0.0
2014-Nov-16 15:34N 47°44' W 003°21'0 0.0
2014-Nov-16 14:34N 47°44' W 003°21'1 1.2
2014-Nov-16 13:33N 47°45' W 003°20'0 0.3
2014-Nov-16 12:34N 47°45' W 003°19'0 0.0
2014-Nov-16 11:34N 47°45' W 003°19'0 0.0
2014-Nov-16 10:33N 47°45' W 003°19'5 4.8
2014-Nov-16 09:34N 47°41' W 003°24'1 1.4
2014-Nov-16 08:33N 47°40' W 003°25'0 0.1
2014-Nov-16 07:33N 47°40' W 003°25'0 0.0
2014-Nov-16 06:33N 47°40' W 003°25'0 0.0
2014-Nov-16 05:33N 47°40' W 003°25'0 0.0
2014-Nov-16 04:30N 47°40' W 003°25'0 0.0
2014-Nov-16 03:33N 47°40' W 003°25'6 6.5
2014-Nov-16 02:33N 47°35' W 003°18'9 8.6
2014-Nov-16 01:28N 47°28' W 003°10'63 7.9
2014-Nov-15 17:33N 46°37' W 002°16'7 6.8
2014-Nov-15 16:33N 46°33' W 002°08'7 7.3
2014-Nov-15 15:33N 46°29' W 001°59'7 7.3
2014-Nov-15 14:33N 46°25' W 001°51'5 5.0
2014-Nov-15 13:33N 46°22' W 001°44'0 0.1
2014-Nov-15 12:33N 46°22' W 001°44'1 0.6
2014-Nov-15 11:33N 46°22' W 001°45'0 0.0
2014-Nov-15 01:33N 46°22' W 001°45'1 0.7
2014-Nov-15 00:33N 46°23' W 001°44'7 7.3
2014-Nov-14 23:33N 46°30' W 001°48'0 0.0
2014-Nov-14 22:33N 46°30' W 001°48'5 4.7
2014-Nov-14 21:33N 46°25' W 001°46'3 3.2
2014-Nov-14 20:33N 46°22' W 001°45'0 0.3
2014-Nov-14 19:33N 46°22' W 001°44'2 1.8
2014-Nov-14 18:34N 46°24' W 001°45'6 6.1
2014-Nov-14 17:33N 46°30' W 001°48'0 0.0
2014-Nov-14 16:33N 46°30' W 001°48'0 0.0
2014-Nov-14 15:33N 46°30' W 001°48'0 0.0
2014-Nov-14 14:33N 46°30' W 001°48'0 0.0
2014-Nov-14 12:33N 46°30' W 001°48'0 0.0
2014-Nov-14 11:33N 46°30' W 001°48'0 0.0
2014-Nov-14 10:33N 46°30' W 001°48'0 0.0
2014-Nov-14 09:33N 46°30' W 001°48'0 0.0
2014-Nov-14 08:33N 46°30' W 001°48'0 0.0
2014-Nov-14 07:33N 46°30' W 001°48'0 0.0
2014-Nov-14 06:33N 46°30' W 001°48'0 0.0
2014-Nov-14 05:33N 46°30' W 001°48'0 0.0
2014-Nov-14 04:33N 46°30' W 001°48'0 0.0
2014-Nov-14 03:33N 46°30' W 001°48'0 0.0
2014-Nov-14 02:33N 46°30' W 001°48'0 0.0
2014-Nov-14 01:33N 46°30' W 001°48'0 0.0
2014-Nov-14 00:33N 46°30' W 001°48'0 0.0
2014-Nov-13 23:33N 46°30' W 001°48'0 0.0
2014-Nov-13 22:33N 46°30' W 001°48'0 0.0
2014-Nov-13 21:33N 46°30' W 001°48'0 0.0
2014-Nov-13 20:33N 46°30' W 001°48'0 0.2
2014-Nov-13 19:33N 46°30' W 001°48'1 1.3
2014-Nov-13 18:33N 46°29' W 001°47'8 8.2
2014-Nov-13 17:33N 46°21' W 001°45'7 1.0
2014-Nov-13 10:29N 46°14' W 001°42'7 7.9
2014-Nov-13 09:33N 46°21' W 001°45'8 8.2
2014-Nov-13 08:34N 46°29' W 001°47'1 1.3
2014-Nov-13 07:33N 46°30' W 001°48'0 0.0
2014-Nov-13 06:33N 46°30' W 001°48'4 4.3
2014-Nov-13 05:33N 46°29' W 001°54'8 7.7
2014-Nov-13 04:33N 46°32' W 002°03'8 7.8
2014-Nov-13 03:30N 46°37' W 002°14'  
Track history (hours):
 
Tides and Currents Weather Stations Pressure Air Temp Water Temp Dewpoint Dewpoint Depression Visibility Wind Speed Wind Dir Waves Ship Positions

Cotes De Bretagne

Last reported at 2014-Nov-22 16:33 UTC. Time now 2014-Nov-22 16:51 UTC.
Position N 47°56' W 004°08'.

Length 75 m; draft 4.2 m.

Type: Dredging. MMSI: 227003850.

Date/timePositionNaut miles runAvg speedWind from/ knotsBaromVisibWave heightAir tempDewpointWater temp
2014-Nov-22 16:33N 47°56' W 004°08'3 0.9
2014-Nov-22 13:33N 47°53' W 004°07'4 0.2
2014-Nov-21 15:33N 47°57' W 004°07'9 2.2
2014-Nov-21 11:33N 47°49' W 004°03'9 9.4
2014-Nov-21 10:33N 47°44' W 003°51'21 1.4
2014-Nov-20 19:33N 47°31' W 003°25'39 6.4
2014-Nov-20 13:33N 47°58' W 004°06'6 5.9
2014-Nov-20 12:33N 47°52' W 004°07'3 0.4
2014-Nov-20 05:33N 47°50' W 004°05'31 0.7
2014-Nov-18 10:18N 47°40' W 003°22'4 5.5
2014-Nov-18 09:34N 47°44' W 003°21'0 0.0
2014-Nov-18 08:34N 47°44' W 003°21'0 0.0
2014-Nov-18 07:34N 47°44' W 003°21'0 0.0
2014-Nov-18 06:34N 47°44' W 003°21'0 0.0
2014-Nov-18 05:34N 47°44' W 003°21'0 0.0
2014-Nov-18 04:34N 47°44' W 003°21'0 0.0
2014-Nov-18 03:34N 47°44' W 003°21'0 0.0
2014-Nov-18 02:34N 47°44' W 003°21'0 0.0
2014-Nov-18 01:34N 47°44' W 003°21'0 0.0
2014-Nov-18 00:34N 47°44' W 003°21'0 0.0
2014-Nov-17 23:34N 47°44' W 003°21'0 0.0
2014-Nov-17 22:33N 47°44' W 003°21'0 0.0
2014-Nov-17 21:34N 47°44' W 003°21'0 0.0
2014-Nov-17 20:34N 47°44' W 003°21'0 0.0
2014-Nov-17 19:34N 47°44' W 003°21'0 0.0
2014-Nov-17 18:34N 47°44' W 003°21'0 0.0
2014-Nov-17 17:34N 47°44' W 003°21'0 0.0
2014-Nov-17 16:34N 47°44' W 003°21'0 0.0
2014-Nov-17 15:34N 47°44' W 003°21'0 0.0
2014-Nov-17 14:33N 47°44' W 003°21'0 0.0
2014-Nov-17 13:33N 47°44' W 003°21'0 0.0
2014-Nov-17 12:33N 47°44' W 003°21'0 0.0
2014-Nov-17 11:33N 47°44' W 003°21'0 0.0
2014-Nov-17 10:33N 47°44' W 003°21'0 0.0
2014-Nov-17 09:33N 47°44' W 003°21'0 0.0
2014-Nov-17 08:33N 47°44' W 003°21'0 0.0
2014-Nov-17 07:33N 47°44' W 003°21'0 0.0
2014-Nov-17 06:33N 47°44' W 003°21'0 0.0
2014-Nov-17 05:33N 47°44' W 003°21'0 0.0
2014-Nov-17 04:33N 47°44' W 003°21'0 0.0
2014-Nov-17 03:33N 47°44' W 003°21'0 0.0
2014-Nov-17 02:33N 47°44' W 003°21'0 0.0
2014-Nov-17 01:33N 47°44' W 003°21'0 0.0
2014-Nov-17 00:33N 47°44' W 003°21'0 0.0
2014-Nov-16 23:33N 47°44' W 003°21'0 0.0
2014-Nov-16 22:33N 47°44' W 003°21'0 0.0
2014-Nov-16 21:33N 47°44' W 003°21'0 0.0
2014-Nov-16 20:33N 47°44' W 003°21'0 0.0
2014-Nov-16 19:33N 47°44' W 003°21'0 0.0
2014-Nov-16 18:33N 47°44' W 003°21'0 0.0
2014-Nov-16 17:33N 47°44' W 003°21'0 0.0
2014-Nov-16 16:33N 47°44' W 003°21'0 0.0
2014-Nov-16 15:34N 47°44' W 003°21'0 0.0
2014-Nov-16 14:34N 47°44' W 003°21'1 1.2
2014-Nov-16 13:33N 47°45' W 003°20'0 0.3
2014-Nov-16 12:34N 47°45' W 003°19'0 0.0
2014-Nov-16 11:34N 47°45' W 003°19'0 0.0
2014-Nov-16 10:33N 47°45' W 003°19'5 4.8
2014-Nov-16 09:34N 47°41' W 003°24'1 1.4
2014-Nov-16 08:33N 47°40' W 003°25'0 0.1
2014-Nov-16 07:33N 47°40' W 003°25'0 0.0
2014-Nov-16 06:33N 47°40' W 003°25'0 0.0
2014-Nov-16 05:33N 47°40' W 003°25'0 0.0
2014-Nov-16 04:30N 47°40' W 003°25'0 0.0
2014-Nov-16 03:33N 47°40' W 003°25'6 6.5
2014-Nov-16 02:33N 47°35' W 003°18'9 8.6
2014-Nov-16 01:28N 47°28' W 003°10'63 7.9
2014-Nov-15 17:33N 46°37' W 002°16'7 6.8
2014-Nov-15 16:33N 46°33' W 002°08'7 7.3
2014-Nov-15 15:33N 46°29' W 001°59'7 7.3
2014-Nov-15 14:33N 46°25' W 001°51'5 5.0
2014-Nov-15 13:33N 46°22' W 001°44'0 0.1
2014-Nov-15 12:33N 46°22' W 001°44'1 0.6
2014-Nov-15 11:33N 46°22' W 001°45'0 0.0
2014-Nov-15 01:33N 46°22' W 001°45'1 0.7
2014-Nov-15 00:33N 46°23' W 001°44'7 7.3
2014-Nov-14 23:33N 46°30' W 001°48'0 0.0
2014-Nov-14 22:33N 46°30' W 001°48'5 4.7
2014-Nov-14 21:33N 46°25' W 001°46'3 3.2
2014-Nov-14 20:33N 46°22' W 001°45'0 0.3
2014-Nov-14 19:33N 46°22' W 001°44'2 1.8
2014-Nov-14 18:34N 46°24' W 001°45'6 6.1
2014-Nov-14 17:33N 46°30' W 001°48'0 0.0
2014-Nov-14 16:33N 46°30' W 001°48'0 0.0
2014-Nov-14 15:33N 46°30' W 001°48'0 0.0
2014-Nov-14 14:33N 46°30' W 001°48'0 0.0
2014-Nov-14 12:33N 46°30' W 001°48'0 0.0
2014-Nov-14 11:33N 46°30' W 001°48'0 0.0
2014-Nov-14 10:33N 46°30' W 001°48'0 0.0
2014-Nov-14 09:33N 46°30' W 001°48'0 0.0
2014-Nov-14 08:33N 46°30' W 001°48'0 0.0
2014-Nov-14 07:33N 46°30' W 001°48'0 0.0
2014-Nov-14 06:33N 46°30' W 001°48'0 0.0
2014-Nov-14 05:33N 46°30' W 001°48'0 0.0
2014-Nov-14 04:33N 46°30' W 001°48'0 0.0
2014-Nov-14 03:33N 46°30' W 001°48'0 0.0
2014-Nov-14 02:33N 46°30' W 001°48'0 0.0
2014-Nov-14 01:33N 46°30' W 001°48'0 0.0
2014-Nov-14 00:33N 46°30' W 001°48'0 0.0
2014-Nov-13 23:33N 46°30' W 001°48'0 0.0
2014-Nov-13 22:33N 46°30' W 001°48'0 0.0
2014-Nov-13 21:33N 46°30' W 001°48'0 0.0
2014-Nov-13 20:33N 46°30' W 001°48'0 0.2
2014-Nov-13 19:33N 46°30' W 001°48'1 1.3
2014-Nov-13 18:33N 46°29' W 001°47'8 8.2
2014-Nov-13 17:33N 46°21' W 001°45'7 1.0
2014-Nov-13 10:29N 46°14' W 001°42'7 7.9
2014-Nov-13 09:33N 46°21' W 001°45'8 8.2
2014-Nov-13 08:34N 46°29' W 001°47'1 1.3
2014-Nov-13 07:33N 46°30' W 001°48'0 0.0
2014-Nov-13 06:33N 46°30' W 001°48'4 4.3
2014-Nov-13 05:33N 46°29' W 001°54'8 7.7
2014-Nov-13 04:33N 46°32' W 002°03'8 7.8
2014-Nov-13 03:30N 46°37' W 002°14'  

Dump ship's entire track history